sensor_id;sensor_type;location;lat;lon;timestamp;P1;durP1;ratioP1;P2;durP2;ratioP2
10305;SDS011;5198;52.382;9.020;2023-03-16T00:01:11;241.88;;;61.70;;
10305;SDS011;5198;52.382;9.020;2023-03-16T00:05:15;242.05;;;61.20;;
10305;SDS011;5198;52.382;9.020;2023-03-16T00:09:18;243.87;;;62.03;;
10305;SDS011;5198;52.382;9.020;2023-03-16T00:13:21;236.70;;;60.20;;
10305;SDS011;5198;52.382;9.020;2023-03-16T00:17:27;234.60;;;59.80;;
10305;SDS011;5198;52.382;9.020;2023-03-16T00:21:30;271.70;;;61.88;;
10305;SDS011;5198;52.382;9.020;2023-03-16T00:25:35;262.52;;;62.45;;
10305;SDS011;5198;52.382;9.020;2023-03-16T00:29:38;265.93;;;62.80;;
10305;SDS011;5198;52.382;9.020;2023-03-16T00:33:48;243.90;;;59.80;;
10305;SDS011;5198;52.382;9.020;2023-03-16T00:37:51;238.52;;;60.53;;
10305;SDS011;5198;52.382;9.020;2023-03-16T00:41:57;241.80;;;60.95;;
10305;SDS011;5198;52.382;9.020;2023-03-16T00:46:00;246.98;;;61.88;;
10305;SDS011;5198;52.382;9.020;2023-03-16T00:50:09;239.95;;;60.00;;
10305;SDS011;5198;52.382;9.020;2023-03-16T00:54:12;246.65;;;61.45;;
10305;SDS011;5198;52.382;9.020;2023-03-16T00:58:15;246.30;;;60.70;;
10305;SDS011;5198;52.382;9.020;2023-03-16T01:02:18;248.80;;;60.88;;
10305;SDS011;5198;52.382;9.020;2023-03-16T01:06:25;249.25;;;61.50;;
10305;SDS011;5198;52.382;9.020;2023-03-16T04:58:19;233.80;;;59.72;;
10305;SDS011;5198;52.382;9.020;2023-03-16T05:02:22;235.57;;;60.70;;
10305;SDS011;5198;52.382;9.020;2023-03-16T05:06:26;238.20;;;61.17;;
10305;SDS011;5198;52.382;9.020;2023-03-16T05:10:29;238.90;;;61.20;;
10305;SDS011;5198;52.382;9.020;2023-03-16T05:14:33;242.40;;;61.92;;
10305;SDS011;5198;52.382;9.020;2023-03-16T05:18:36;238.40;;;61.10;;
10305;SDS011;5198;52.382;9.020;2023-03-16T05:22:40;237.80;;;60.53;;
10305;SDS011;5198;52.382;9.020;2023-03-16T05:26:43;239.60;;;60.90;;
10305;SDS011;5198;52.382;9.020;2023-03-16T05:30:48;238.75;;;60.55;;
10305;SDS011;5198;52.382;9.020;2023-03-16T05:34:51;239.80;;;60.70;;
10305;SDS011;5198;52.382;9.020;2023-03-16T05:38:56;238.23;;;60.00;;
10305;SDS011;5198;52.382;9.020;2023-03-16T05:42:59;237.75;;;59.95;;
10305;SDS011;5198;52.382;9.020;2023-03-16T05:47:04;239.63;;;60.63;;
10305;SDS011;5198;52.382;9.020;2023-03-16T05:51:07;236.20;;;59.78;;
10305;SDS011;5198;52.382;9.020;2023-03-16T05:55:12;235.32;;;59.17;;
10305;SDS011;5198;52.382;9.020;2023-03-16T05:59:16;233.20;;;58.80;;
10305;SDS011;5198;52.382;9.020;2023-03-16T06:03:21;236.98;;;60.30;;
10305;SDS011;5198;52.382;9.020;2023-03-16T06:07:29;232.47;;;58.57;;
10305;SDS011;5198;52.382;9.020;2023-03-16T06:11:32;240.95;;;60.75;;
10305;SDS011;5198;52.382;9.020;2023-03-16T06:15:35;246.80;;;61.40;;
10305;SDS011;5198;52.382;9.020;2023-03-16T06:19:40;253.40;;;61.50;;
10305;SDS011;5198;52.382;9.020;2023-03-16T06:23:43;254.93;;;61.72;;
10305;SDS011;5198;52.382;9.020;2023-03-16T06:27:46;250.30;;;62.50;;
10305;SDS011;5198;52.382;9.020;2023-03-16T06:31:49;252.30;;;61.50;;
10305;SDS011;5198;52.382;9.020;2023-03-16T06:35:54;242.83;;;61.23;;
10305;SDS011;5198;52.382;9.020;2023-03-16T06:39:57;242.95;;;61.25;;
10305;SDS011;5198;52.382;9.020;2023-03-16T06:44:00;239.05;;;60.38;;
10305;SDS011;5198;52.382;9.020;2023-03-16T06:48:04;235.02;;;59.03;;
10305;SDS011;5198;52.382;9.020;2023-03-16T06:52:11;235.88;;;59.20;;
10305;SDS011;5198;52.382;9.020;2023-03-16T07:00:18;232.60;;;58.05;;
10305;SDS011;5198;52.382;9.020;2023-03-16T07:04:21;232.70;;;58.15;;
10305;SDS011;5198;52.382;9.020;2023-03-16T07:08:26;242.05;;;61.05;;
10305;SDS011;5198;52.382;9.020;2023-03-16T07:12:29;234.30;;;58.40;;
10305;SDS011;5198;52.382;9.020;2023-03-16T07:16:32;236.93;;;59.60;;
10305;SDS011;5198;52.382;9.020;2023-03-16T07:20:35;236.77;;;59.10;;
10305;SDS011;5198;52.382;9.020;2023-03-16T07:24:39;253.15;;;63.10;;
10305;SDS011;5198;52.382;9.020;2023-03-16T07:28:45;239.18;;;60.10;;
10305;SDS011;5198;52.382;9.020;2023-03-16T07:32:48;232.00;;;57.70;;
10305;SDS011;5198;52.382;9.020;2023-03-16T07:36:51;236.70;;;59.13;;
10305;SDS011;5198;52.382;9.020;2023-03-16T07:40:57;235.35;;;57.90;;
10305;SDS011;5198;52.382;9.020;2023-03-16T07:45:00;235.20;;;58.20;;
10305;SDS011;5198;52.382;9.020;2023-03-16T07:49:03;234.77;;;57.72;;
10305;SDS011;5198;52.382;9.020;2023-03-16T07:53:06;257.50;;;61.25;;
10305;SDS011;5198;52.382;9.020;2023-03-16T07:57:11;252.52;;;60.97;;
10305;SDS011;5198;52.382;9.020;2023-03-16T08:01:14;242.63;;;60.60;;
10305;SDS011;5198;52.382;9.020;2023-03-16T08:05:18;251.73;;;61.10;;
10305;SDS011;5198;52.382;9.020;2023-03-16T08:09:21;240.98;;;61.95;;
10305;SDS011;5198;52.382;9.020;2023-03-16T08:13:25;240.45;;;60.92;;
10305;SDS011;5198;52.382;9.020;2023-03-16T08:21:31;254.65;;;61.13;;
10305;SDS011;5198;52.382;9.020;2023-03-16T08:25:50;252.52;;;60.47;;
10305;SDS011;5198;52.382;9.020;2023-03-16T08:29:55;251.23;;;60.88;;
10305;SDS011;5198;52.382;9.020;2023-03-16T08:33:58;252.52;;;61.08;;
10305;SDS011;5198;52.382;9.020;2023-03-16T08:38:01;248.00;;;60.53;;
10305;SDS011;5198;52.382;9.020;2023-03-16T08:42:05;246.83;;;60.10;;
10305;SDS011;5198;52.382;9.020;2023-03-16T08:50:13;245.97;;;61.40;;
10305;SDS011;5198;52.382;9.020;2023-03-16T08:58:19;247.50;;;60.50;;
10305;SDS011;5198;52.382;9.020;2023-03-16T09:02:24;249.30;;;62.07;;
10305;SDS011;5198;52.382;9.020;2023-03-16T09:06:27;242.15;;;61.30;;
10305;SDS011;5198;52.382;9.020;2023-03-16T09:10:30;243.35;;;61.70;;
10305;SDS011;5198;52.382;9.020;2023-03-16T09:14:33;246.00;;;61.05;;
10305;SDS011;5198;52.382;9.020;2023-03-16T09:18:40;240.40;;;61.45;;
10305;SDS011;5198;52.382;9.020;2023-03-16T09:22:43;240.35;;;61.58;;
10305;SDS011;5198;52.382;9.020;2023-03-16T09:26:47;228.70;;;61.30;;
10305;SDS011;5198;52.382;9.020;2023-03-16T09:30:50;205.75;;;54.70;;
10305;SDS011;5198;52.382;9.020;2023-03-16T09:34:56;203.90;;;54.40;;
10305;SDS011;5198;52.382;9.020;2023-03-16T09:38:59;205.80;;;55.15;;
10305;SDS011;5198;52.382;9.020;2023-03-16T09:43:15;209.57;;;57.07;;
10305;SDS011;5198;52.382;9.020;2023-03-16T09:47:29;208.00;;;56.65;;
10305;SDS011;5198;52.382;9.020;2023-03-16T09:51:40;205.60;;;56.00;;
10305;SDS011;5198;52.382;9.020;2023-03-16T09:55:47;206.00;;;56.15;;
10305;SDS011;5198;52.382;9.020;2023-03-16T09:59:54;208.00;;;56.80;;
10305;SDS011;5198;52.382;9.020;2023-03-16T10:04:08;204.20;;;55.95;;
10305;SDS011;5198;52.382;9.020;2023-03-16T10:08:20;199.40;;;54.80;;
10305;SDS011;5198;52.382;9.020;2023-03-16T10:12:28;199.45;;;54.75;;
10305;SDS011;5198;52.382;9.020;2023-03-16T10:16:34;200.45;;;55.58;;
10305;SDS011;5198;52.382;9.020;2023-03-16T10:20:42;202.35;;;56.05;;
10305;SDS011;5198;52.382;9.020;2023-03-16T10:28:58;238.10;;;61.10;;
10305;SDS011;5198;52.382;9.020;2023-03-16T10:33:02;223.82;;;60.80;;
10305;SDS011;5198;52.382;9.020;2023-03-16T10:37:20;209.23;;;56.88;;
10305;SDS011;5198;52.382;9.020;2023-03-16T10:41:27;194.50;;;55.70;;
10305;SDS011;5198;52.382;9.020;2023-03-16T10:45:33;208.30;;;58.40;;
10305;SDS011;5198;52.382;9.020;2023-03-16T10:49:37;205.20;;;59.10;;
10305;SDS011;5198;52.382;9.020;2023-03-16T10:53:42;205.55;;;57.80;;
10305;SDS011;5198;52.382;9.020;2023-03-16T10:57:48;205.35;;;58.10;;
10305;SDS011;5198;52.382;9.020;2023-03-16T11:01:53;205.05;;;58.30;;
10305;SDS011;5198;52.382;9.020;2023-03-16T11:05:58;203.10;;;57.50;;
10305;SDS011;5198;52.382;9.020;2023-03-16T11:10:10;203.15;;;56.85;;
10305;SDS011;5198;52.382;9.020;2023-03-16T11:14:27;202.30;;;56.60;;
10305;SDS011;5198;52.382;9.020;2023-03-16T11:18:31;203.60;;;57.10;;
10305;SDS011;5198;52.382;9.020;2023-03-16T11:22:37;203.27;;;56.80;;
10305;SDS011;5198;52.382;9.020;2023-03-16T11:26:41;201.80;;;56.30;;
10305;SDS011;5198;52.382;9.020;2023-03-16T11:30:55;202.85;;;56.80;;
10305;SDS011;5198;52.382;9.020;2023-03-16T11:35:11;200.90;;;56.25;;
10305;SDS011;5198;52.382;9.020;2023-03-16T11:39:20;202.15;;;56.85;;
10305;SDS011;5198;52.382;9.020;2023-03-16T11:43:38;199.07;;;55.60;;
10305;SDS011;5198;52.382;9.020;2023-03-16T11:47:55;198.70;;;55.60;;
10305;SDS011;5198;52.382;9.020;2023-03-16T11:52:18;200.30;;;56.55;;
10305;SDS011;5198;52.382;9.020;2023-03-16T11:56:32;199.60;;;56.05;;
10305;SDS011;5198;52.382;9.020;2023-03-16T12:00:43;198.48;;;55.60;;
10305;SDS011;5198;52.382;9.020;2023-03-16T12:04:57;199.18;;;56.10;;
10305;SDS011;5198;52.382;9.020;2023-03-16T12:09:27;197.03;;;55.17;;
10305;SDS011;5198;52.382;9.020;2023-03-16T12:13:51;191.30;;;53.40;;
10305;SDS011;5198;52.382;9.020;2023-03-16T12:18:04;196.40;;;54.97;;
10305;SDS011;5198;52.382;9.020;2023-03-16T12:22:16;192.60;;;54.38;;
10305;SDS011;5198;52.382;9.020;2023-03-16T12:26:23;194.90;;;55.03;;
10305;SDS011;5198;52.382;9.020;2023-03-16T12:30:34;191.93;;;54.17;;
10305;SDS011;5198;52.382;9.020;2023-03-16T12:34:43;182.30;;;53.40;;
10305;SDS011;5198;52.382;9.020;2023-03-16T12:38:51;172.02;;;52.10;;
10305;SDS011;5198;52.382;9.020;2023-03-16T12:43:05;176.00;;;52.73;;
10305;SDS011;5198;52.382;9.020;2023-03-16T12:47:25;180.63;;;53.10;;
10305;SDS011;5198;52.382;9.020;2023-03-16T12:51:33;179.07;;;52.80;;
10305;SDS011;5198;52.382;9.020;2023-03-16T12:55:43;171.80;;;52.05;;
10305;SDS011;5198;52.382;9.020;2023-03-16T12:59:46;176.95;;;53.15;;
10305;SDS011;5198;52.382;9.020;2023-03-16T13:03:59;176.40;;;52.78;;
10305;SDS011;5198;52.382;9.020;2023-03-16T13:08:05;172.82;;;52.45;;
10305;SDS011;5198;52.382;9.020;2023-03-16T13:12:21;168.85;;;51.58;;
10305;SDS011;5198;52.382;9.020;2023-03-16T13:24:35;228.97;;;60.07;;
10305;SDS011;5198;52.382;9.020;2023-03-16T13:28:41;237.20;;;60.50;;
10305;SDS011;5198;52.382;9.020;2023-03-16T13:32:51;219.35;;;58.80;;
10305;SDS011;5198;52.382;9.020;2023-03-16T13:36:55;232.25;;;60.75;;
10305;SDS011;5198;52.382;9.020;2023-03-16T13:41:02;220.30;;;60.50;;
10305;SDS011;5198;52.382;9.020;2023-03-16T13:45:12;216.20;;;60.00;;
10305;SDS011;5198;52.382;9.020;2023-03-16T13:49:16;219.35;;;59.30;;
10305;SDS011;5198;52.382;9.020;2023-03-16T13:53:20;219.20;;;58.90;;
10305;SDS011;5198;52.382;9.020;2023-03-16T13:57:26;190.88;;;55.92;;
10305;SDS011;5198;52.382;9.020;2023-03-16T14:01:33;215.23;;;59.90;;
10305;SDS011;5198;52.382;9.020;2023-03-16T14:05:36;223.30;;;60.00;;
10305;SDS011;5198;52.382;9.020;2023-03-16T14:09:41;225.30;;;59.90;;
10305;SDS011;5198;52.382;9.020;2023-03-16T14:13:48;227.70;;;59.80;;
10305;SDS011;5198;52.382;9.020;2023-03-16T14:18:00;229.50;;;60.07;;
10305;SDS011;5198;52.382;9.020;2023-03-16T14:22:15;228.00;;;59.70;;
10305;SDS011;5198;52.382;9.020;2023-03-16T14:26:19;216.50;;;59.10;;
10305;SDS011;5198;52.382;9.020;2023-03-16T14:30:23;218.15;;;60.50;;
10305;SDS011;5198;52.382;9.020;2023-03-16T14:34:30;223.70;;;59.67;;
10305;SDS011;5198;52.382;9.020;2023-03-16T14:38:36;211.80;;;57.55;;
10305;SDS011;5198;52.382;9.020;2023-03-16T14:42:41;198.07;;;56.22;;
10305;SDS011;5198;52.382;9.020;2023-03-16T14:46:45;221.03;;;59.30;;
10305;SDS011;5198;52.382;9.020;2023-03-16T14:50:53;225.70;;;60.00;;
10305;SDS011;5198;52.382;9.020;2023-03-16T14:54:58;215.70;;;59.30;;
10305;SDS011;5198;52.382;9.020;2023-03-16T14:59:03;218.47;;;61.37;;
10305;SDS011;5198;52.382;9.020;2023-03-16T15:03:10;203.30;;;57.40;;
10305;SDS011;5198;52.382;9.020;2023-03-16T15:07:22;164.50;;;50.45;;
10305;SDS011;5198;52.382;9.020;2023-03-16T15:11:27;157.95;;;49.50;;
10305;SDS011;5198;52.382;9.020;2023-03-16T15:15:32;169.27;;;51.40;;
10305;SDS011;5198;52.382;9.020;2023-03-16T15:19:35;172.90;;;52.10;;
10305;SDS011;5198;52.382;9.020;2023-03-16T15:23:40;171.18;;;51.58;;
10305;SDS011;5198;52.382;9.020;2023-03-16T15:31:47;233.30;;;60.55;;
10305;SDS011;5198;52.382;9.020;2023-03-16T15:35:55;224.95;;;60.70;;
10305;SDS011;5198;52.382;9.020;2023-03-16T15:40:12;223.10;;;60.70;;
10305;SDS011;5198;52.382;9.020;2023-03-16T15:44:18;224.50;;;60.20;;
10305;SDS011;5198;52.382;9.020;2023-03-16T15:48:21;229.33;;;61.67;;
10305;SDS011;5198;52.382;9.020;2023-03-16T15:52:26;224.00;;;60.70;;
10305;SDS011;5198;52.382;9.020;2023-03-16T15:56:35;231.83;;;62.07;;
10305;SDS011;5198;52.382;9.020;2023-03-16T16:00:54;231.10;;;61.25;;
10305;SDS011;5198;52.382;9.020;2023-03-16T16:04:58;235.00;;;62.30;;
10305;SDS011;5198;52.382;9.020;2023-03-16T16:09:01;238.10;;;61.90;;
10305;SDS011;5198;52.382;9.020;2023-03-16T16:13:07;239.80;;;61.65;;
10305;SDS011;5198;52.382;9.020;2023-03-16T16:17:14;240.30;;;61.15;;
10305;SDS011;5198;52.382;9.020;2023-03-16T16:21:36;240.45;;;60.95;;
10305;SDS011;5198;52.382;9.020;2023-03-16T16:25:40;238.10;;;60.60;;
10305;SDS011;5198;52.382;9.020;2023-03-16T16:29:45;224.00;;;59.57;;
10305;SDS011;5198;52.382;9.020;2023-03-16T16:33:48;207.85;;;58.70;;
10305;SDS011;5198;52.382;9.020;2023-03-16T16:37:51;221.40;;;59.60;;
10305;SDS011;5198;52.382;9.020;2023-03-16T16:41:57;227.10;;;60.50;;
10305;SDS011;5198;52.382;9.020;2023-03-16T16:46:05;231.70;;;62.10;;
10305;SDS011;5198;52.382;9.020;2023-03-16T16:50:14;234.30;;;60.95;;
10305;SDS011;5198;52.382;9.020;2023-03-16T16:54:22;240.35;;;61.40;;
10305;SDS011;5198;52.382;9.020;2023-03-16T16:58:27;206.83;;;58.13;;
10305;SDS011;5198;52.382;9.020;2023-03-16T17:02:31;209.90;;;59.60;;
10305;SDS011;5198;52.382;9.020;2023-03-16T17:06:44;204.80;;;57.70;;
10305;SDS011;5198;52.382;9.020;2023-03-16T17:10:48;207.70;;;58.70;;
10305;SDS011;5198;52.382;9.020;2023-03-16T17:14:52;202.27;;;56.65;;
10305;SDS011;5198;52.382;9.020;2023-03-16T17:18:56;202.57;;;57.07;;
10305;SDS011;5198;52.382;9.020;2023-03-16T17:23:00;195.20;;;54.45;;
10305;SDS011;5198;52.382;9.020;2023-03-16T17:27:03;200.15;;;55.63;;
10305;SDS011;5198;52.382;9.020;2023-03-16T17:31:06;198.17;;;54.90;;
10305;SDS011;5198;52.382;9.020;2023-03-16T17:35:13;202.77;;;56.30;;
10305;SDS011;5198;52.382;9.020;2023-03-16T17:39:17;206.30;;;57.55;;
10305;SDS011;5198;52.382;9.020;2023-03-16T17:43:22;207.30;;;58.35;;
10305;SDS011;5198;52.382;9.020;2023-03-16T17:47:26;207.53;;;58.37;;
10305;SDS011;5198;52.382;9.020;2023-03-16T17:51:32;203.93;;;56.57;;
10305;SDS011;5198;52.382;9.020;2023-03-16T17:55:41;204.80;;;56.90;;
10305;SDS011;5198;52.382;9.020;2023-03-16T17:59:45;206.37;;;57.70;;
10305;SDS011;5198;52.382;9.020;2023-03-16T18:03:48;207.50;;;57.80;;
10305;SDS011;5198;52.382;9.020;2023-03-16T18:07:58;210.20;;;58.90;;
10305;SDS011;5198;52.382;9.020;2023-03-16T18:12:08;207.10;;;58.05;;
10305;SDS011;5198;52.382;9.020;2023-03-16T18:16:13;207.50;;;57.40;;
10305;SDS011;5198;52.382;9.020;2023-03-16T18:20:26;207.30;;;56.95;;
10305;SDS011;5198;52.382;9.020;2023-03-16T18:24:34;211.75;;;59.30;;
10305;SDS011;5198;52.382;9.020;2023-03-16T18:28:37;214.05;;;60.45;;
10305;SDS011;5198;52.382;9.020;2023-03-16T18:36:55;212.77;;;59.45;;
10305;SDS011;5198;52.382;9.020;2023-03-16T18:41:09;212.03;;;58.93;;
10305;SDS011;5198;52.382;9.020;2023-03-16T18:45:30;214.10;;;59.80;;
10305;SDS011;5198;52.382;9.020;2023-03-16T18:49:41;214.10;;;60.03;;
10305;SDS011;5198;52.382;9.020;2023-03-16T18:53:55;211.60;;;58.60;;
10305;SDS011;5198;52.382;9.020;2023-03-16T18:58:00;212.33;;;58.87;;
10305;SDS011;5198;52.382;9.020;2023-03-16T19:02:03;211.53;;;58.43;;
10305;SDS011;5198;52.382;9.020;2023-03-16T19:06:11;207.20;;;56.95;;
10305;SDS011;5198;52.382;9.020;2023-03-16T19:10:21;206.75;;;56.30;;
10305;SDS011;5198;52.382;9.020;2023-03-16T19:14:29;206.95;;;55.90;;
10305;SDS011;5198;52.382;9.020;2023-03-16T19:18:33;207.37;;;55.83;;
10305;SDS011;5198;52.382;9.020;2023-03-16T19:22:42;207.07;;;55.70;;
10305;SDS011;5198;52.382;9.020;2023-03-16T19:26:46;206.23;;;55.50;;
10305;SDS011;5198;52.382;9.020;2023-03-16T19:30:51;208.70;;;56.65;;
10305;SDS011;5198;52.382;9.020;2023-03-16T19:34:55;206.97;;;56.27;;
10305;SDS011;5198;52.382;9.020;2023-03-16T19:38:58;210.00;;;57.55;;
10305;SDS011;5198;52.382;9.020;2023-03-16T19:43:01;207.90;;;56.90;;
10305;SDS011;5198;52.382;9.020;2023-03-16T19:47:07;208.20;;;56.40;;
10305;SDS011;5198;52.382;9.020;2023-03-16T19:51:21;208.70;;;57.05;;
10305;SDS011;5198;52.382;9.020;2023-03-16T19:55:27;209.83;;;57.27;;
10305;SDS011;5198;52.382;9.020;2023-03-16T19:59:32;208.30;;;57.00;;
10305;SDS011;5198;52.382;9.020;2023-03-16T20:03:38;209.00;;;56.60;;
10305;SDS011;5198;52.382;9.020;2023-03-16T21:16:52;239.90;;;60.40;;
10305;SDS011;5198;52.382;9.020;2023-03-16T21:20:55;241.60;;;60.60;;
10305;SDS011;5198;52.382;9.020;2023-03-16T21:25:00;241.25;;;61.05;;
10305;SDS011;5198;52.382;9.020;2023-03-16T21:29:04;242.05;;;62.05;;
10305;SDS011;5198;52.382;9.020;2023-03-16T21:33:11;241.10;;;62.00;;
10305;SDS011;5198;52.382;9.020;2023-03-16T21:37:21;237.60;;;61.00;;
10305;SDS011;5198;52.382;9.020;2023-03-16T21:41:26;239.10;;;61.25;;
10305;SDS011;5198;52.382;9.020;2023-03-16T21:45:29;238.95;;;61.15;;
10305;SDS011;5198;52.382;9.020;2023-03-16T21:49:35;235.70;;;62.55;;
10305;SDS011;5198;52.382;9.020;2023-03-16T21:53:44;239.17;;;61.93;;
10305;SDS011;5198;52.382;9.020;2023-03-16T21:58:03;235.80;;;60.90;;
10305;SDS011;5198;52.382;9.020;2023-03-16T22:02:10;236.80;;;61.30;;
10305;SDS011;5198;52.382;9.020;2023-03-16T22:06:21;238.80;;;61.87;;
10305;SDS011;5198;52.382;9.020;2023-03-16T22:10:39;238.50;;;62.00;;
10305;SDS011;5198;52.382;9.020;2023-03-16T22:14:48;237.25;;;61.50;;
10305;SDS011;5198;52.382;9.020;2023-03-16T22:18:51;237.27;;;62.00;;
10305;SDS011;5198;52.382;9.020;2023-03-16T22:22:58;238.00;;;62.20;;
10305;SDS011;5198;52.382;9.020;2023-03-16T22:27:02;236.80;;;61.15;;
10305;SDS011;5198;52.382;9.020;2023-03-16T22:47:43;242.80;;;61.90;;
10305;SDS011;5198;52.382;9.020;2023-03-16T22:55:51;241.30;;;61.10;;
10305;SDS011;5198;52.382;9.020;2023-03-16T23:24:28;241.25;;;60.15;;
10305;SDS011;5198;52.382;9.020;2023-03-16T23:28:31;240.10;;;59.70;;
10305;SDS011;5198;52.382;9.020;2023-03-16T23:32:36;241.70;;;60.10;;
10305;SDS011;5198;52.382;9.020;2023-03-16T23:36:40;241.40;;;60.00;;
10305;SDS011;5198;52.382;9.020;2023-03-16T23:44:48;240.95;;;59.50;;
10305;SDS011;5198;52.382;9.020;2023-03-16T23:48:52;240.65;;;59.65;;
10305;SDS011;5198;52.382;9.020;2023-03-16T23:52:59;240.20;;;59.80;;
10305;SDS011;5198;52.382;9.020;2023-03-16T23:57:03;239.35;;;59.25;;
